Pagina principale
METAR-TAF:

METAR-TAF

Aeroporti :

Bad Vöslau, Austria

latitudine: 47-57-52N, longitudine: 016-15-34E, altezza: 233 m

Osservazione

Il bollettino è stato emesso 41 minuti fa, alle 14:00 UTC
Vento 10 kt da sud/sud-est
Temperature 28°C
Umidità 48%
Pressione
Visibilità 10 km o più
Poco nuvoloso ad un'altezza di 4000 ft

METAR: LOAV 171400Z 15010KT 9999 FEW040 28/16

Ora: 16:41 (14:41 UTC)

Previsione

Il bollettino è stato emesso 3 ore e 26 minuti fa, alle 11:15 UTC
Previsione valida dal 17 alle 12 UTC al 17 alle 21 UTC
Vento 4 kt da sud-est
Visibilità 10 km o più
Poco nuvoloso ad un'altezza di 5000 ft
Temporaneamente
dal 17 alle 13 UTC al 17 alle 18 UTC
Vento 7 kt da sud-est
Probabilità 40% :
Temporaneamente
dal 17 alle 14 UTC al 17 alle 17 UTC
Poco nuvoloso ad un'altezza di 5000 ft, Cumulonembo.

TAF: LOAV 171115Z 1712/1721 13004KT 9999 FEW050 TEMPO 1713/1718 13007KT PROB40 TEMPO 1714/1717 FEW050CB

Osservazioni e previsioni meteorologiche di più di 4000 aeroporti (messaggi METAR e TAF).

Le stazioni disponibili sono rappresentate dai dischi gialli e rossi sulla carta.

Puntare il mouse per vedere il nome della stazione.

Clicca sopra per visualizzare le osservazioni e previsioni meteorologiche.

Per cambiare la mappa : fare clic sui pulsanti verdi con una croce nera per ingrandire, il pulsante verde con un trattino per diminuire, o sulla freccia verde per le mappe adiacenti.


METAR-TAF: